createdAt,value
2019-04-22T00:02:02.323Z,13.30
2019-04-22T00:04:42.081Z,13.30
2019-04-22T00:07:22.776Z,13.20
2019-04-22T00:09:58.506Z,13.20
2019-04-22T00:12:35.475Z,13.30
2019-04-22T00:14:52.820Z,13.10
2019-04-22T00:17:38.537Z,13.00
2019-04-22T00:20:04.990Z,12.90
2019-04-22T00:22:35.147Z,12.90
2019-04-22T00:25:10.595Z,12.90
2019-04-22T00:30:13.491Z,12.90
2019-04-22T00:32:42.108Z,13.00
2019-04-22T00:35:13.302Z,13.10
2019-04-22T00:37:49.498Z,13.40
2019-04-22T00:40:24.724Z,13.10
2019-04-22T00:42:50.296Z,13.00
2019-04-22T00:45:21.880Z,13.00
2019-04-22T00:47:48.031Z,13.20
2019-04-22T00:50:23.509Z,13.40
2019-04-22T00:52:59.914Z,13.40
2019-04-22T00:55:24.735Z,13.50
2019-04-22T00:57:54.469Z,13.50
2019-04-22T01:00:33.800Z,13.60
2019-04-22T01:03:03.025Z,13.50
2019-04-22T01:05:34.331Z,13.50
2019-04-22T01:08:09.791Z,13.50
2019-04-22T01:10:39.023Z,13.40
2019-04-22T01:13:09.506Z,13.30
2019-04-22T01:15:40.786Z,13.10
2019-04-22T01:18:08.260Z,13.00
2019-04-22T01:21:07.241Z,12.80
2019-04-22T01:23:13.096Z,12.80
2019-04-22T01:25:39.931Z,12.70
2019-04-22T01:28:06.397Z,12.70
2019-04-22T01:30:32.458Z,12.70
2019-04-22T01:33:03.547Z,12.70
2019-04-22T01:35:38.648Z,12.70
2019-04-22T01:38:13.293Z,12.60
2019-04-22T01:40:59.741Z,12.60
2019-04-22T01:43:33.148Z,12.60
2019-04-22T01:46:01.780Z,12.70
2019-04-22T01:48:32.518Z,12.60
2019-04-22T01:51:03.363Z,12.60
2019-04-22T01:53:42.468Z,12.60
2019-04-22T01:56:06.685Z,12.60
2019-04-22T01:58:36.155Z,12.60
2019-04-22T02:01:10.883Z,12.50
2019-04-22T02:03:42.938Z,12.50
2019-04-22T02:06:17.280Z,12.40
2019-04-22T02:08:52.781Z,12.40
2019-04-22T02:11:14.646Z,12.20
2019-04-22T02:13:51.738Z,12.30
2019-04-22T02:16:20.089Z,12.40
2019-04-22T02:18:58.505Z,12.30
2019-04-22T02:21:23.453Z,12.30
2019-04-22T02:23:54.064Z,12.30
2019-04-22T02:26:34.614Z,12.20
2019-04-22T02:28:55.218Z,12.20
2019-04-22T02:37:13.590Z,11.80
2019-04-22T02:39:23.669Z,11.80
2019-04-22T02:41:55.183Z,11.80
2019-04-22T02:44:31.375Z,11.90
2019-04-22T02:47:11.935Z,11.80
2019-04-22T02:49:31.557Z,11.90
2019-04-22T02:51:59.758Z,11.90
2019-04-22T02:57:18.870Z,11.90
2019-04-22T02:59:41.276Z,11.90
2019-04-22T03:02:28.697Z,11.90
2019-04-22T03:04:37.517Z,11.80
2019-04-22T03:07:03.563Z,11.80
2019-04-22T03:09:47.841Z,11.70
2019-04-22T03:12:21.537Z,11.70
2019-04-22T03:14:44.112Z,11.80
2019-04-22T03:17:16.249Z,12.00
2019-04-22T03:19:55.586Z,11.90
2019-04-22T03:22:16.168Z,11.90
2019-04-22T03:25:12.446Z,11.70
2019-04-22T03:33:05.450Z,11.80
2019-04-22T03:37:52.893Z,11.80
2019-04-22T03:50:25.525Z,11.80
2019-04-22T03:53:09.438Z,11.70
2019-04-22T03:55:32.700Z,11.70
2019-04-22T03:58:16.257Z,11.70
2019-04-22T04:10:40.029Z,11.50
2019-04-22T04:13:15.841Z,11.40
2019-04-22T04:18:13.857Z,11.40
2019-04-22T04:21:10.245Z,11.30
2019-04-22T04:23:31.219Z,11.40
2019-04-22T04:25:50.316Z,11.30
2019-04-22T04:30:48.769Z,11.40
2019-04-22T04:33:24.408Z,11.40
2019-04-22T04:36:01.092Z,11.20
2019-04-22T04:38:21.139Z,11.20
2019-04-22T04:43:25.836Z,11.10
2019-04-22T04:45:57.226Z,11.00
2019-04-22T04:48:32.294Z,11.00
2019-04-22T04:51:11.184Z,10.90
2019-04-22T04:53:42.817Z,10.90
2019-04-22T04:56:08.356Z,11.10
2019-04-22T05:01:03.795Z,11.30
2019-04-22T05:06:09.415Z,11.20
2019-04-22T05:11:10.891Z,11.20
2019-04-22T05:18:44.793Z,11.30
2019-04-22T05:21:14.524Z,11.30
2019-04-22T05:23:47.515Z,11.30
2019-04-22T05:26:22.072Z,11.30
2019-04-22T05:28:44.815Z,11.30
2019-04-22T05:31:16.129Z,11.30
2019-04-22T05:33:51.479Z,11.40
2019-04-22T05:36:20.370Z,11.40
2019-04-22T05:38:55.268Z,11.40
2019-04-22T05:41:22.865Z,11.40
2019-04-22T05:44:00.404Z,11.50
2019-04-22T05:46:26.685Z,11.60
2019-04-22T05:48:59.757Z,11.70
2019-04-22T05:51:31.229Z,11.60
2019-04-22T05:54:01.550Z,11.70
2019-04-22T05:59:03.790Z,11.60
2019-04-22T06:01:43.162Z,11.80
2019-04-22T06:06:37.138Z,11.80
2019-04-22T06:09:10.708Z,12.00
2019-04-22T06:11:32.215Z,12.00
2019-04-22T06:14:14.947Z,12.10
2019-04-22T06:16:50.394Z,12.30
2019-04-22T06:19:21.489Z,12.40
2019-04-22T06:21:49.989Z,12.60
2019-04-22T06:24:23.539Z,12.70
2019-04-22T06:27:06.476Z,12.90
2019-04-22T06:29:26.430Z,13.10
2019-04-22T06:32:17.657Z,13.20
2019-04-22T06:34:30.759Z,13.40
2019-04-22T06:39:33.955Z,13.60
2019-04-22T06:42:11.039Z,13.70
2019-04-22T06:44:38.905Z,13.90
2019-04-22T06:47:14.825Z,14.00
2019-04-22T06:49:41.483Z,14.10
2019-04-22T06:54:48.948Z,14.40
2019-04-22T06:57:24.255Z,14.60
2019-04-22T06:59:51.557Z,14.70
2019-04-22T07:02:25.635Z,14.80
2019-04-22T07:04:58.282Z,15.00
2019-04-22T07:07:40.006Z,15.10
2019-04-22T07:10:03.617Z,15.20
2019-04-22T07:12:24.455Z,15.30
2019-04-22T07:14:55.897Z,15.40
2019-04-22T07:17:31.311Z,15.50
2019-04-22T07:19:55.551Z,15.70
2019-04-22T07:22:45.536Z,16.00
2019-04-22T07:25:06.535Z,16.50
2019-04-22T07:27:34.260Z,16.90
2019-04-22T07:30:09.271Z,17.20
2019-04-22T07:32:59.176Z,17.50
2019-04-22T07:35:14.088Z,17.80
2019-04-22T07:37:48.339Z,18.00
2019-04-22T07:40:16.861Z,18.40
2019-04-22T07:42:49.139Z,18.60
2019-04-22T07:45:25.202Z,18.70
2019-04-22T07:47:56.731Z,19.10
2019-04-22T07:50:37.412Z,19.50
2019-04-22T07:52:51.655Z,19.90
2019-04-22T07:55:21.537Z,20.00
2019-04-22T07:57:58.333Z,20.30
2019-04-22T08:00:44.818Z,20.30
2019-04-22T08:03:06.623Z,20.50
2019-04-22T08:05:45.390Z,21.00
2019-04-22T08:08:16.024Z,21.00
2019-04-22T08:10:43.289Z,21.20
2019-04-22T08:13:11.925Z,21.50
2019-04-22T08:15:47.096Z,21.70
2019-04-22T08:18:28.358Z,21.80
2019-04-22T08:20:48.282Z,21.80
2019-04-22T08:23:28.811Z,22.00
2019-04-22T08:26:05.410Z,22.20
2019-04-22T08:28:25.610Z,22.20
2019-04-22T08:30:53.759Z,22.40
2019-04-22T08:33:29.292Z,22.60
2019-04-22T08:38:46.964Z,22.90
2019-04-22T08:41:17.858Z,23.40
2019-04-22T08:43:56.243Z,23.90
2019-04-22T08:46:25.594Z,24.10
2019-04-22T08:48:51.514Z,24.20
2019-04-22T08:51:25.107Z,24.70
2019-04-22T08:54:00.424Z,24.20
2019-04-22T08:59:07.068Z,24.20
2019-04-22T09:01:27.932Z,24.50
2019-04-22T09:04:01.806Z,24.70
2019-04-22T09:09:07.631Z,24.80
2019-04-22T09:14:14.035Z,25.40
2019-04-22T09:16:37.283Z,26.20
2019-04-22T09:19:25.054Z,26.40
2019-04-22T09:24:10.702Z,25.90
2019-04-22T09:26:41.855Z,26.10
2019-04-22T09:29:20.739Z,26.10
2019-04-22T09:31:47.877Z,26.50
2019-04-22T09:34:18.449Z,26.50
2019-04-22T09:36:50.360Z,26.80
2019-04-22T09:39:21.732Z,27.10
2019-04-22T09:41:51.070Z,27.40
2019-04-22T09:44:23.062Z,27.50
2019-04-22T09:46:56.924Z,27.50
2019-04-22T09:49:30.811Z,27.50
2019-04-22T09:51:58.444Z,27.80
2019-04-22T09:54:31.902Z,27.80
2019-04-22T09:56:56.475Z,27.90
2019-04-22T09:59:28.555Z,28.10
2019-04-22T10:02:13.263Z,28.60
2019-04-22T10:04:27.566Z,28.70
2019-04-22T10:06:54.833Z,29.00
2019-04-22T10:12:02.563Z,29.40
2019-04-22T10:14:38.412Z,29.20
2019-04-22T10:17:06.580Z,29.20
2019-04-22T10:19:44.580Z,29.60
2019-04-22T10:22:22.081Z,29.60
2019-04-22T10:24:44.989Z,29.80
2019-04-22T10:27:18.610Z,29.10
2019-04-22T10:29:58.615Z,29.00
2019-04-22T10:32:19.116Z,29.20
2019-04-22T10:34:38.767Z,29.40
2019-04-22T10:37:08.564Z,29.80
2019-04-22T10:39:45.855Z,29.60
2019-04-22T10:42:11.255Z,29.80
2019-04-22T10:44:41.461Z,30.10
2019-04-22T10:47:13.875Z,30.30
2019-04-22T10:49:44.472Z,30.50
2019-04-22T10:52:13.790Z,30.80
2019-04-22T10:54:43.325Z,30.90
2019-04-22T10:57:13.836Z,30.80
2019-04-22T10:59:44.896Z,30.40
2019-04-22T11:02:23.444Z,30.50
2019-04-22T11:04:52.728Z,30.30
2019-04-22T11:07:31.067Z,30.90
2019-04-22T11:10:01.116Z,30.90
2019-04-22T11:12:28.499Z,31.40
2019-04-22T11:14:58.085Z,31.50
2019-04-22T11:17:29.291Z,31.60
2019-04-22T11:20:01.817Z,31.60
2019-04-22T11:22:34.838Z,31.80
2019-04-22T12:38:39.791Z,31.60
2019-04-22T12:41:11.964Z,31.40
2019-04-22T12:43:40.951Z,31.50
2019-04-22T12:46:12.072Z,31.10
2019-04-22T12:48:41.335Z,31.30
2019-04-22T12:51:11.058Z,31.90
2019-04-22T12:53:42.497Z,31.80
2019-04-22T12:56:12.669Z,31.60
2019-04-22T12:58:43.402Z,31.40
2019-04-22T13:01:12.850Z,31.20
2019-04-22T13:03:42.724Z,31.10
2019-04-22T13:06:12.201Z,31.20
2019-04-22T13:08:43.667Z,31.00
2019-04-22T13:11:19.895Z,30.80
2019-04-22T13:13:47.386Z,31.10
2019-04-22T13:16:17.481Z,30.80
2019-04-22T13:18:53.864Z,30.80
2019-04-22T13:21:20.422Z,30.70
2019-04-22T13:23:50.799Z,31.00
2019-04-22T13:26:21.146Z,31.50
2019-04-22T13:28:54.805Z,31.50
2019-04-22T13:31:26.710Z,31.80
2019-04-22T13:33:59.739Z,31.50
2019-04-22T13:36:28.268Z,31.20
2019-04-22T13:39:00.723Z,31.10
2019-04-22T13:41:37.680Z,31.10
2019-04-22T13:44:02.033Z,31.40
2019-04-22T13:46:34.074Z,32.00
2019-04-22T13:49:37.785Z,32.00
2019-04-22T13:57:02.142Z,32.30
2019-04-22T13:59:25.815Z,32.50
2019-04-22T14:02:22.330Z,32.30
2019-04-22T14:04:54.720Z,32.50
2019-04-22T14:07:25.144Z,32.20
2019-04-22T14:09:54.361Z,31.80
2019-04-22T14:12:24.723Z,31.40
2019-04-22T14:14:54.444Z,30.90
2019-04-22T14:17:25.000Z,30.70
2019-04-22T14:19:54.998Z,30.20
2019-04-22T14:22:26.524Z,29.70
2019-04-22T14:24:58.841Z,29.10
2019-04-22T14:27:40.790Z,29.10
2019-04-22T14:29:59.934Z,29.10
2019-04-22T14:32:31.682Z,29.40
2019-04-22T14:35:07.222Z,29.00
2019-04-22T14:37:36.513Z,29.30
2019-04-22T14:40:09.245Z,29.90
2019-04-22T14:42:56.501Z,30.30
2019-04-22T14:45:41.541Z,30.40
2019-04-22T14:48:09.351Z,30.80
2019-04-22T14:50:35.230Z,31.00
2019-04-22T14:53:08.275Z,31.10
2019-04-22T14:55:25.015Z,30.90
2019-04-22T14:57:55.037Z,31.00
2019-04-22T15:00:27.938Z,31.10
2019-04-22T15:02:57.523Z,31.20
2019-04-22T15:05:28.200Z,31.00
2019-04-22T15:07:57.434Z,31.10
2019-04-22T15:10:28.424Z,31.10
2019-04-22T15:13:00.589Z,31.20
2019-04-22T15:15:48.958Z,31.40
2019-04-22T15:18:41.810Z,31.00
2019-04-22T15:21:14.522Z,30.60
2019-04-22T15:23:44.672Z,30.80
2019-04-22T15:26:16.740Z,30.80
2019-04-22T15:28:49.392Z,30.60
2019-04-22T15:31:19.955Z,30.80
2019-04-22T15:33:52.331Z,31.00
2019-04-22T15:36:24.371Z,31.40
2019-04-22T15:39:02.978Z,31.50
2019-04-22T15:41:32.748Z,31.20
2019-04-22T15:44:05.958Z,31.20
2019-04-22T15:46:37.206Z,30.90
2019-04-22T15:49:06.579Z,30.50
2019-04-22T15:51:38.633Z,30.80
2019-04-22T15:54:09.625Z,30.90
2019-04-22T15:56:39.115Z,30.70
2019-04-22T15:59:27.353Z,30.30
2019-04-22T16:01:41.502Z,30.00
2019-04-22T16:04:12.647Z,30.10
2019-04-22T16:06:43.123Z,30.10
2019-04-22T16:09:13.167Z,29.80
2019-04-22T16:11:45.648Z,29.70
2019-04-22T16:14:25.486Z,29.60
2019-04-22T16:16:46.611Z,29.80
2019-04-22T16:19:17.040Z,29.70
2019-04-22T16:21:53.445Z,29.70
2019-04-22T16:24:27.929Z,29.70
2019-04-22T16:27:00.647Z,29.80
2019-04-22T16:29:31.443Z,29.70
2019-04-22T16:32:01.452Z,29.50
2019-04-22T16:34:32.106Z,29.40
2019-04-22T16:37:02.799Z,29.50
2019-04-22T16:39:32.986Z,29.50
2019-04-22T16:42:02.664Z,29.70
2019-04-22T16:44:32.395Z,29.60
2019-04-22T16:47:01.635Z,30.10
2019-04-22T16:49:32.078Z,30.10
2019-04-22T16:52:02.138Z,30.30
2019-04-22T16:54:32.818Z,30.20
2019-04-22T16:57:02.009Z,29.90
2019-04-22T16:59:31.187Z,30.00
2019-04-22T17:02:19.043Z,29.70
2019-04-22T17:05:02.282Z,29.50
2019-04-22T17:07:31.895Z,29.20
2019-04-22T17:10:08.034Z,28.70
2019-04-22T17:12:47.884Z,28.20
2019-04-22T17:15:12.196Z,28.00
2019-04-22T17:17:43.360Z,27.70
2019-04-22T17:20:13.283Z,27.40
2019-04-22T17:22:44.028Z,27.30
2019-04-22T17:25:18.259Z,27.00
2019-04-22T17:27:47.814Z,26.60
2019-04-22T17:30:20.196Z,26.30
2019-04-22T17:32:50.416Z,26.30
2019-04-22T17:35:22.062Z,25.90
2019-04-22T17:38:01.737Z,25.70
2019-04-22T17:40:48.486Z,25.70
2019-04-22T17:43:29.846Z,25.50
2019-04-22T17:45:58.448Z,25.20
2019-04-22T17:48:49.121Z,25.00
2019-04-22T17:51:29.891Z,24.90
2019-04-22T17:53:53.043Z,24.80
2019-04-22T17:56:20.603Z,24.50
2019-04-22T17:58:57.055Z,24.40
2019-04-22T18:01:29.438Z,24.20
2019-04-22T18:03:48.536Z,24.00
2019-04-22T18:06:39.153Z,23.90
2019-04-22T18:09:03.653Z,23.70
2019-04-22T18:11:44.639Z,23.50
2019-04-22T18:14:27.221Z,23.40
2019-04-22T18:16:41.416Z,23.00
2019-04-22T18:19:10.122Z,23.00
2019-04-22T18:21:41.174Z,22.90
2019-04-22T18:24:11.727Z,22.80
2019-04-22T18:26:55.485Z,22.60
2019-04-22T18:29:22.246Z,22.50
2019-04-22T18:31:47.555Z,22.30
2019-04-22T18:34:25.613Z,22.30
2019-04-22T18:36:59.108Z,22.10
2019-04-22T18:39:40.493Z,21.90
2019-04-22T18:42:09.308Z,21.80
2019-04-22T18:44:45.808Z,21.60
2019-04-22T18:47:13.188Z,21.40
2019-04-22T18:49:42.902Z,21.50
2019-04-22T18:52:40.202Z,21.30
2019-04-22T18:55:16.364Z,20.90
2019-04-22T18:57:59.133Z,20.80
2019-04-22T19:00:18.184Z,20.80
2019-04-22T19:02:56.983Z,20.70
2019-04-22T19:05:39.947Z,20.60
2019-04-22T19:10:57.593Z,20.30
2019-04-22T19:16:17.232Z,20.10
2019-04-22T19:18:29.959Z,20.10
2019-04-22T19:20:59.576Z,19.90
2019-04-22T19:23:27.800Z,19.80
2019-04-22T19:25:52.293Z,19.70
2019-04-22T19:28:35.451Z,19.70
2019-04-22T19:31:13.778Z,19.60
2019-04-22T19:33:40.549Z,19.60
2019-04-22T19:36:14.940Z,19.50
2019-04-22T19:38:31.284Z,19.40
2019-04-22T19:41:29.172Z,19.40
2019-04-22T19:43:46.594Z,19.30
2019-04-22T19:46:16.451Z,19.10
2019-04-22T19:48:49.628Z,19.10
2019-04-22T19:51:23.622Z,19.00
2019-04-22T19:53:51.270Z,19.10
2019-04-22T19:56:17.973Z,19.00
2019-04-22T19:58:52.646Z,18.90
2019-04-22T20:01:45.604Z,18.80
2019-04-22T20:04:49.406Z,18.80
2019-04-22T20:07:12.698Z,18.70
2019-04-22T20:09:49.357Z,18.60
2019-04-22T20:12:18.461Z,18.50
2019-04-22T20:14:49.680Z,18.50
2019-04-22T20:17:28.654Z,18.40
2019-04-22T20:20:06.305Z,18.40
2019-04-22T20:22:28.656Z,18.40
2019-04-22T20:24:47.081Z,18.30
2019-04-22T20:27:35.158Z,18.20
2019-04-22T20:30:09.895Z,18.20
2019-04-22T20:32:34.514Z,18.10
2019-04-22T20:35:07.956Z,18.10
2019-04-22T20:37:38.434Z,18.00
2019-04-22T20:40:10.295Z,18.00
2019-04-22T20:45:15.205Z,17.90
2019-04-22T20:47:40.468Z,17.90
2019-04-22T20:50:21.742Z,17.90
2019-04-22T20:52:54.269Z,17.80
2019-04-22T20:55:13.765Z,17.80
2019-04-22T20:57:57.836Z,17.70
2019-04-22T21:00:18.069Z,17.70
2019-04-22T21:02:46.434Z,17.60
2019-04-22T21:05:19.614Z,17.60
2019-04-22T21:08:02.479Z,17.40
2019-04-22T21:10:27.718Z,17.40
2019-04-22T21:13:00.145Z,17.40
2019-04-22T21:15:57.781Z,17.30
2019-04-22T21:18:12.362Z,17.30
2019-04-22T21:20:53.923Z,17.30
2019-04-22T21:23:16.494Z,17.20
2019-04-22T21:25:36.923Z,17.20
2019-04-22T21:28:21.637Z,17.10
2019-04-22T21:30:53.534Z,17.00
2019-04-22T21:33:18.155Z,16.90
2019-04-22T21:36:10.557Z,16.80
2019-04-22T21:38:32.491Z,16.80
2019-04-22T21:40:58.349Z,16.80
2019-04-22T21:43:36.924Z,16.80
2019-04-22T21:46:04.147Z,16.80
2019-04-22T21:48:55.756Z,16.80
2019-04-22T21:51:13.728Z,16.60
2019-04-22T21:53:48.435Z,16.50
2019-04-22T21:56:29.013Z,16.40
2019-04-22T21:58:44.648Z,16.40
2019-04-22T22:01:28.240Z,16.40
2019-04-22T22:04:00.494Z,16.30
2019-04-22T22:06:23.508Z,16.30
2019-04-22T22:09:02.052Z,16.20
2019-04-22T22:11:35.724Z,16.20
2019-04-22T22:14:09.146Z,16.10
2019-04-22T22:16:33.646Z,16.20
2019-04-22T22:19:10.973Z,16.20
2019-04-22T22:24:18.844Z,16.00
2019-04-22T22:26:46.250Z,16.00
2019-04-22T22:29:32.158Z,16.00
2019-04-22T22:31:52.867Z,15.90
2019-04-22T22:34:21.371Z,15.90
2019-04-22T22:36:40.907Z,15.90
2019-04-22T22:39:14.072Z,15.90
2019-04-22T22:41:29.994Z,15.90
2019-04-22T22:44:08.802Z,15.90
2019-04-22T22:46:43.133Z,15.80
2019-04-22T22:49:26.448Z,15.70
2019-04-22T22:52:11.911Z,15.70
2019-04-22T22:54:31.781Z,15.70
2019-04-22T22:57:10.384Z,15.70
2019-04-22T22:59:33.228Z,15.60
2019-04-22T23:02:08.179Z,15.60
2019-04-22T23:04:39.900Z,15.50
2019-04-22T23:07:17.674Z,15.50
2019-04-22T23:09:47.089Z,15.40
2019-04-22T23:12:14.921Z,15.30
2019-04-22T23:14:45.014Z,15.20
2019-04-22T23:17:03.193Z,15.10
2019-04-22T23:19:27.900Z,15.10
2019-04-22T23:22:01.849Z,15.10
2019-04-22T23:25:07.744Z,15.10
2019-04-22T23:27:40.651Z,15.00
2019-04-22T23:30:21.523Z,15.00
2019-04-22T23:33:01.935Z,15.00
2019-04-22T23:35:36.496Z,14.90
2019-04-22T23:38:07.386Z,14.90
2019-04-22T23:40:42.505Z,14.80
2019-04-22T23:43:23.820Z,14.80
2019-04-22T23:45:50.487Z,14.80
2019-04-22T23:48:14.169Z,14.70
2019-04-22T23:50:49.529Z,14.60
2019-04-22T23:53:57.984Z,14.60
2019-04-22T23:56:11.096Z,14.50
